Impacts TAF Board
For situational awareness. Not to be used for flight planning purposes.
IDs:

KGPT - Gulfport-Biloxi Intl, MS, US

Issued at 0520 UTC 18 Oct 2018
Updated at 0533 UTC 18 Oct 2018
Potential Impact None Slight Moderate High
Time0453Z 18/06Z 18/07Z 18/08Z 18/09Z 18/10Z 18/11Z 18/12Z 18/13Z 18/14Z 18/15Z 18/16Z 18/17Z 18/18Z>>
Type OBS PRVL PRVL PRVL PRVL PRVL PRVL PRVL PRVL PRVL PRVL PRVL PRVL PRVL
VIS 10 >6 >6 >6 >6 >6 >6 >6 >6 >6 >6 >6 >6 >6
CIG -- -- -- -- -- -- -- -- -- -- -- -- -- --
Cover CLR SKC SKC SKC SKC SKC SKC SKC SKC SKC SKC SKC SKC SKC
FltCat VFR VFR VFR VFR VFR VFR VFR VFR VFR VFR VFR VFR VFR VFR
WX -- -- -- -- -- -- -- -- -- -- -- -- -- --
WDir 20 20 20 20 20 20 20 20 20 20 20 20 20 20
WSpd 8 8 8 8 8 8 8 8 8 8 8 8 8 8
WGst -- -- -- -- -- -- -- -- -- -- -- -- -- --
Raw TAF
KGPT 180520Z 1806/1906 02008KT P6SM SKC
  FM181900 05009KT P6SM FEW050 FEW250


Raw METAR
KGPT 180453Z AUTO 02008KT 10SM CLR 20/17 A3022 RMK AO2 SLP233 T02000172
KGPT 180410Z AUTO 02009KT 10SM SCT013 21/18 A3023 RMK AO2 T02110178
KGPT 180353Z AUTO 02011KT 10SM OVC012 21/18 A3023 RMK AO2 SLP235 T02110178
KGPT 180253Z 02008KT 10SM OVC011 22/19 A3022 RMK AO2 SLP234 T02220189 51015

METAR Board
Radar Display
Forecast Discussion
For situational awareness. Not to be used for flight planning purposes.